Normandie — FNNO — position and weather

sailwx.info

Track history (hours):
 
Tides and Currents Weather Stations Pressure Air Temp Water Temp Dewpoint Dewpoint Depression Visibility Wind Speed Wind Dir Waves Ship Positions

Normandie

Operator: Brittany Ferries

Last reported at 2018-Apr-25 01:48 UTC. Time now 2018-Apr-25 02:37 UTC.
Position N 50°07' W 000°40'.

Length 161 m; beam 27 m.

Type: Passenger vessel. MMSI: 227273000.

Date/timePositionNaut miles runAvg speedWind from/ knotsBaromVisibWave heightAir tempDewpointWater temp
2018-Apr-25 01:48N 50°07' W 000°40'310.3
2018-Apr-25 01:29N 50°04' W 000°39'610.9
2018-Apr-25 00:55N 49°58' W 000°36'511.3
2018-Apr-25 00:30N 49°54' W 000°34'611.0
2018-Apr-25 00:00N 49°48' W 000°31'611.1
2018-Apr-24 23:30N 49°43' W 000°29'611.2
2018-Apr-24 23:00N 49°38' W 000°27'611.3
2018-Apr-24 22:30N 49°33' W 000°23'611.4
2018-Apr-24 22:00N 49°27' W 000°19'611.2
2018-Apr-24 21:30N 49°22' W 000°16'510.1
2018-Apr-24 21:01N 49°17' W 000°15'0 0.1
2018-Apr-24 20:30N 49°17' W 000°15'0 0.0
2018-Apr-24 20:01N 49°17' W 000°15'0 0.0
2018-Apr-24 19:30N 49°17' W 000°15'5 9.1
2018-Apr-24 19:00N 49°22' W 000°14'918.2
2018-Apr-24 18:30N 49°30' W 000°19'918.3
2018-Apr-24 18:00N 49°39' W 000°25'918.8
2018-Apr-24 17:30N 49°47' W 000°31'918.6
2018-Apr-24 17:01N 49°56' W 000°35'1019.2
2018-Apr-24 16:30N 50°05' W 000°39'2119.1
2018-Apr-24 15:24N 50°26' W 000°50'819.1
2018-Apr-24 15:00N 50°33' W 000°55'918.5
2018-Apr-24 14:31N 50°41' W 001°00'816.0
2018-Apr-24 14:00N 50°48' W 001°07'1 2.3
2018-Apr-24 13:30N 50°49' W 001°06'0 0.0
2018-Apr-24 13:00N 50°49' W 001°06'0 0.0
2018-Apr-24 12:30N 50°49' W 001°06'1 1.6
2018-Apr-24 12:00N 50°48' W 001°07'713.9
2018-Apr-24 11:30N 50°43' W 001°00'917.3
2018-Apr-24 11:00N 50°35' W 000°56'919.0
2018-Apr-24 10:31N 50°26' W 000°51'918.8
2018-Apr-24 10:00N 50°17' W 000°46'1019.2
2018-Apr-24 09:30N 50°08' W 000°41'1019.5
2018-Apr-24 09:00N 49°59' W 000°35'1019.6
2018-Apr-24 08:30N 49°50' W 000°29'1019.6
2018-Apr-24 08:00N 49°41' W 000°24'1019.2
2018-Apr-24 07:30N 49°31' W 000°20'1019.2
2018-Apr-24 07:00N 49°22' W 000°15'510.0
2018-Apr-24 06:31N 49°17' W 000°15'0 0.0
2018-Apr-24 06:00N 49°17' W 000°15'0 0.0
2018-Apr-24 05:31N 49°17' W 000°15'0 0.0
2018-Apr-24 05:01N 49°17' W 000°15'0 0.3
2018-Apr-24 04:31N 49°17' W 000°15'816.2
2018-Apr-24 04:00N 49°25' W 000°16'917.5
2018-Apr-24 03:30N 49°34' W 000°20'816.1
2018-Apr-24 03:00N 49°41' W 000°27'816.2
2018-Apr-24 02:30N 49°48' W 000°31'816.4
2018-Apr-24 02:00N 49°56' W 000°34'816.1
2018-Apr-24 01:30N 50°04' W 000°37'816.5
2018-Apr-24 01:00N 50°12' W 000°42'1515.9
2018-Apr-24 00:05N 50°25' W 000°50'215.9
2018-Apr-23 23:57N 50°27' W 000°51'717.0
2018-Apr-23 23:30N 50°34' W 000°56'816.6
2018-Apr-23 23:00N 50°42' W 000°59'714.9
2018-Apr-23 22:31N 50°48' W 001°07'1 2.4
2018-Apr-23 22:00N 50°49' W 001°06'0 0.0
2018-Apr-23 21:30N 50°49' W 001°06'0 0.0
2018-Apr-23 21:01N 50°49' W 001°06'0 0.0
2018-Apr-23 20:31N 50°49' W 001°06'0 0.3
2018-Apr-23 20:01N 50°49' W 001°06'510.5
2018-Apr-23 19:30N 50°44' W 001°03'918.4
2018-Apr-23 19:00N 50°36' W 000°56'1019.4
2018-Apr-23 18:31N 50°28' W 000°47'1018.8
2018-Apr-23 18:00N 50°20' W 000°40'918.6
2018-Apr-23 17:30N 50°11' W 000°35'1018.8
2018-Apr-23 17:00N 50°01' W 000°35'918.5
2018-Apr-23 16:31N 49°53' W 000°30'918.4
2018-Apr-23 16:00N 49°44' W 000°25'918.6
2018-Apr-23 15:30N 49°35' W 000°21'919.0
2018-Apr-23 15:00N 49°26' W 000°17'917.1
2018-Apr-23 14:30N 49°18' W 000°15'0 0.5
2018-Apr-23 14:00N 49°17' W 000°15'0 0.0
2018-Apr-23 13:30N 49°17' W 000°15'0 0.0
2018-Apr-23 13:00N 49°17' W 000°15'5 9.3
2018-Apr-23 12:30N 49°22' W 000°14'917.5
2018-Apr-23 12:00N 49°31' W 000°17'917.7
2018-Apr-23 11:31N 49°39' W 000°22'917.9
2018-Apr-23 11:01N 49°47' W 000°28'918.0
2018-Apr-23 10:31N 49°55' W 000°32'917.2
2018-Apr-23 10:00N 50°03' W 000°38'917.1
2018-Apr-23 09:30N 50°11' W 000°43'1517.1
2018-Apr-23 08:40N 50°25' W 000°50'317.6
2018-Apr-23 08:30N 50°27' W 000°51'918.5
2018-Apr-23 08:01N 50°36' W 000°57'918.4
2018-Apr-23 07:31N 50°44' W 001°04'5 9.6
2018-Apr-23 07:00N 50°49' W 001°06'0 0.0
2018-Apr-23 06:30N 50°49' W 001°06'0 0.0
2018-Apr-23 06:00N 50°49' W 001°06'0 0.2
2018-Apr-23 05:31N 50°49' W 001°06'5 9.1
2018-Apr-23 05:00N 50°44' W 001°04'816.3
2018-Apr-23 04:30N 50°37' W 000°59'714.7
2018-Apr-23 04:00N 50°30' W 000°56'914.9
2018-Apr-23 03:25N 50°21' W 000°52'814.4
2018-Apr-23 02:51N 50°15' W 000°45'514.6
2018-Apr-23 02:30N 50°10' W 000°42'714.2
2018-Apr-23 02:00N 50°03' W 000°38'612.1
2018-Apr-23 01:30N 49°57' W 000°35'5 9.8
2018-Apr-23 01:00N 49°53' W 000°32'510.1
2018-Apr-23 00:30N 49°48' W 000°30'510.3
2018-Apr-23 00:00N 49°43' W 000°27'510.6
2018-Apr-22 23:30N 49°38' W 000°25'611.1
2018-Apr-22 23:00N 49°33' W 000°22'611.3
2018-Apr-22 22:30N 49°28' W 000°19'611.5
2018-Apr-22 22:00N 49°22' W 000°16'510.1
2018-Apr-22 21:30N 49°17' W 000°15'0 0.1
2018-Apr-22 21:00N 49°17' W 000°15'0 0.0
2018-Apr-22 20:30N 49°17' W 000°15'0 0.0
2018-Apr-22 20:00N 49°17' W 000°15'1 1.1
2018-Apr-22 19:30N 49°18' W 000°15'816.4
2018-Apr-22 19:00N 49°26' W 000°18'917.6
2018-Apr-22 18:30N 49°34' W 000°23'917.7
2018-Apr-22 18:00N 49°42' W 000°27'918.0
2018-Apr-22 17:30N 49°51' W 000°31'918.3
2018-Apr-22 17:00N 49°60' W 000°36'918.5
2018-Apr-22 16:31N 50°08' W 000°40'918.5
2018-Apr-22 16:00N 50°17' W 000°46'918.8
2018-Apr-22 15:31N 50°25' W 000°52'918.3
2018-Apr-22 15:01N 50°34' W 000°55'917.3
2018-Apr-22 14:30N 50°42' W 001°01'714.4
2018-Apr-22 14:01N 50°48' W 001°07'1 1.5
2018-Apr-22 13:30N 50°49' W 001°06'0 0.0
2018-Apr-22 13:01N 50°49' W 001°06'0 0.0
2018-Apr-22 12:31N 50°49' W 001°06'1 1.3
2018-Apr-22 12:01N 50°48' W 001°07'612.8
2018-Apr-22 11:31N 50°43' W 001°01'816.8
2018-Apr-22 11:00N 50°35' W 000°56'918.0
2018-Apr-22 10:31N 50°27' W 000°52'918.7
2018-Apr-22 10:01N 50°18' W 000°47'918.8
2018-Apr-22 09:30N 50°09' W 000°42'1019.1
2018-Apr-22 09:00N 50°00' W 000°38'1019.3
2018-Apr-22 08:31N 49°51' W 000°33'1019.5
2018-Apr-22 08:00N 49°42' W 000°28'1019.5
2018-Apr-22 07:30N 49°33' W 000°22'1019.6
2018-Apr-22 07:00N 49°24' W 000°16'612.8
2018-Apr-22 06:30N 49°17' W 000°15'0 0.0
2018-Apr-22 06:00N 49°17' W 000°15'0 0.0
2018-Apr-22 05:30N 49°17' W 000°15'0 0.0
2018-Apr-22 05:00N 49°17' W 000°15'0 0.2
2018-Apr-22 04:31N 49°17' W 000°15'714.7
2018-Apr-22 04:00N 49°25' W 000°14'815.9
2018-Apr-22 03:30N 49°32' W 000°18'815.8
2018-Apr-22 03:00N 49°39' W 000°23'815.8
2018-Apr-22 02:30N 49°47' W 000°27'816.0
2018-Apr-22 02:00N 49°54' W 000°31'816.1
2018-Apr-22 01:31N 50°02' W 000°35'816.1
2018-Apr-22 01:00N 50°10' W 000°39'816.4
2018-Apr-22 00:30N 50°17' W 000°45'713.9
2018-Apr-22 00:00N 50°24' W 000°49'611.9
2018-Apr-21 23:30N 50°29' W 000°53'611.7
2018-Apr-21 23:00N 50°34' W 000°56'713.5
2018-Apr-21 22:30N 50°41' W 000°59'714.1
2018-Apr-21 22:00N 50°46' W 001°06'2 4.6
2018-Apr-21 21:30N 50°49' W 001°06'0 0.0
2018-Apr-21 21:01N 50°49' W 001°06'0 0.0
2018-Apr-21 20:31N 50°49' W 001°06'1 2.2
2018-Apr-21 20:01N 50°48' W 001°07'714.2
2018-Apr-21 19:31N 50°43' W 000°59'917.7
2018-Apr-21 19:00N 50°34' W 000°56'918.7
2018-Apr-21 18:30N 50°25' W 000°50'917.7
2018-Apr-21 18:00N 50°17' W 000°46'918.1
2018-Apr-21 17:31N 50°08' W 000°41'918.4
2018-Apr-21 17:00N 49°60' W 000°36'919.2
2018-Apr-21 16:30N 49°51' W 000°31'1019.0
2018-Apr-21 16:00N 49°42' W 000°27'1019.2
2018-Apr-21 15:30N 49°33' W 000°22'1019.0
2018-Apr-21 15:00N 49°24' W 000°16'713.5
2018-Apr-21 14:31N 49°17' W 000°15'0 0.0
2018-Apr-21 14:01N 49°17' W 000°15'0 0.0
2018-Apr-21 13:30N 49°17' W 000°15'0 0.0
2018-Apr-21 13:01N 49°17' W 000°15'510.1
2018-Apr-21 12:30N 49°22' W 000°14'1019.1
2018-Apr-21 12:00N 49°31' W 000°21'917.8
2018-Apr-21 11:30N 49°39' W 000°26'918.7
2018-Apr-21 11:00N 49°48' W 000°31'919.0
2018-Apr-21 10:30N 49°57' W 000°35'1019.0
2018-Apr-21 10:00N 50°06' W 000°40'1020.3
2018-Apr-21 09:30N 50°16' W 000°45'1019.9
2018-Apr-21 09:00N 50°25' W 000°51'1019.6
2018-Apr-21 08:30N 50°34' W 000°56'917.3
2018-Apr-21 08:00N 50°42' W 000°59'612.9
2018-Apr-21 07:30N 50°47' W 001°06'2 3.7
2018-Apr-21 07:00N 50°49' W 001°06'0 0.0
2018-Apr-21 06:31N 50°49' W 001°06'0 0.0
2018-Apr-21 06:01N 50°49' W 001°06'0 0.2
2018-Apr-21 05:30N 50°49' W 001°06'5 9.9
2018-Apr-21 05:01N 50°44' W 001°04'816.4
2018-Apr-21 04:31N 50°36' W 000°58'815.3
2018-Apr-21 04:00N 50°29' W 000°54'815.5
2018-Apr-21 03:30N 50°22' W 000°50'815.9
2018-Apr-21 03:00N 50°15' W 000°45'713.0
2018-Apr-21 02:30N 50°09' W 000°41'611.7
2018-Apr-21 02:00N 50°03' W 000°37'611.4
2018-Apr-21 01:30N 49°58' W 000°34'611.3
2018-Apr-21 01:00N 49°52' W 000°33'611.0
2018-Apr-21 00:30N 49°47' W 000°30'611.0
2018-Apr-21 00:00N 49°42' W 000°27'510.9
2018-Apr-20 23:30N 49°37' W 000°24'611.1
2018-Apr-20 23:00N 49°32' W 000°21'510.9
2018-Apr-20 22:30N 49°27' W 000°18'510.5
2018-Apr-20 22:00N 49°22' W 000°15'5 9.0
2018-Apr-20 21:30N 49°17' W 000°15'0 0.1
2018-Apr-20 21:00N 49°17' W 000°15'0 0.0
2018-Apr-20 20:30N 49°17' W 000°15'0 0.0
2018-Apr-20 20:00N 49°17' W 000°15'0 0.1
2018-Apr-20 19:30N 49°17' W 000°15'5 9.6
2018-Apr-20 19:00N 49°22' W 000°14'918.6
2018-Apr-20 18:30N 49°31' W 000°19'919.0
2018-Apr-20 18:01N 49°39' W 000°25'918.9
2018-Apr-20 17:31N 49°48' W 000°31'918.8
2018-Apr-20 17:00N 49°57' W 000°36'918.6
2018-Apr-20 16:31N 50°05' W 000°42'918.7
2018-Apr-20 16:00N 50°14' W 000°46'919.0
2018-Apr-20 15:31N 50°23' W 000°51'1019.1
2018-Apr-20 15:00N 50°32' W 000°55'918.5
2018-Apr-20 14:30N 50°41' W 001°01'815.4
2018-Apr-20 14:00N 50°48' W 001°07'1 2.2
2018-Apr-20 13:30N 50°49' W 001°06'0 0.0
2018-Apr-20 13:00N 50°49' W 001°06'0 0.0
2018-Apr-20 12:30N 50°49' W 001°06'1 1.1
2018-Apr-20 12:01N 50°49' W 001°07'714.2
2018-Apr-20 11:30N 50°42' W 001°02'1019.1
2018-Apr-20 11:00N 50°33' W 000°56'919.0
2018-Apr-20 10:30N 50°25' W 000°50'1019.4
2018-Apr-20 10:01N 50°16' W 000°45'1019.1
2018-Apr-20 09:30N 50°07' W 000°40'1019.1
2018-Apr-20 09:00N 49°57' W 000°35'1019.2
2018-Apr-20 08:30N 49°49' W 000°30'1019.5
2018-Apr-20 08:00N 49°39' W 000°26'1019.9
2018-Apr-20 07:30N 49°30' W 000°21'1019.8
2018-Apr-20 07:00N 49°21' W 000°15'3 6.8
2018-Apr-20 06:31N 49°17' W 000°15'0 0.0
2018-Apr-20 06:01N 49°17' W 000°15'0 0.0
2018-Apr-20 05:30N 49°17' W 000°15'0 0.0
2018-Apr-20 05:01N 49°17' W 000°15'0 0.3
2018-Apr-20 04:30N 49°17' W 000°15'815.0
2018-Apr-20 04:00N 49°25' W 000°15'816.8
2018-Apr-20 03:31N 49°32' W 000°20'816.7
2018-Apr-20 03:01N 49°40' W 000°26'816.2
2018-Apr-20 02:31N 49°47' W 000°31'816.2
2018-Apr-20 02:00N 49°55' W 000°36'816.8
2018-Apr-20 01:31N 50°03' W 000°40'917.1
2018-Apr-20 01:00N 50°11' W 000°44'816.9
2018-Apr-20 00:31N 50°19' W 000°46'816.6
2018-Apr-20 00:01N 50°27' W 000°50'917.1
2018-Apr-19 23:31N 50°35' W 000°56'816.3
2018-Apr-19 23:01N 50°42' W 001°01'713.6
2018-Apr-19 22:30N 50°48' W 001°07'1 2.0
2018-Apr-19 22:00N 50°49' W 001°06'0 0.0
2018-Apr-19 21:30N 50°49' W 001°06'0 0.0
2018-Apr-19 21:00N 50°49' W 001°06'0 0.0
2018-Apr-19 20:30N 50°49' W 001°06'1 2.4
2018-Apr-19 20:00N 50°48' W 001°07'714.5
2018-Apr-19 19:30N 50°43' W 000°59'918.5
2018-Apr-19 19:00N 50°33' W 000°56'1019.5
2018-Apr-19 18:30N 50°24' W 000°50'1019.5
2018-Apr-19 18:00N 50°15' W 000°45'1019.9
2018-Apr-19 17:30N 50°06' W 000°41'1020.2
2018-Apr-19 17:00N 49°56' W 000°36'1020.6
2018-Apr-19 16:30N 49°46' W 000°31'1020.7
2018-Apr-19 16:00N 49°37' W 000°25'1020.5
2018-Apr-19 15:30N 49°27' W 000°19'918.5
2018-Apr-19 15:01N 49°18' W 000°15'1 2.0
2018-Apr-19 14:30N 49°17' W 000°15'0 0.0
2018-Apr-19 14:00N 49°17' W 000°15'0 0.0
2018-Apr-19 13:30N 49°17' W 000°15'0 0.2
2018-Apr-19 13:00N 49°17' W 000°15'815.7
2018-Apr-19 12:31N 49°25' W 000°15'1020.0
2018-Apr-19 12:01N 49°35' W 000°19'1020.1
2018-Apr-19 11:31N 49°44' W 000°27'1019.9
2018-Apr-19 11:00N 49°53' W 000°31'1020.4
2018-Apr-19 10:30N 50°03' W 000°36'1020.5
2018-Apr-19 10:00N 50°12' W 000°43'1120.3
2018-Apr-19 09:29N 50°22' W 000°49'919.3
2018-Apr-19 09:00N 50°30' W 000°54'918.2
2018-Apr-19 08:30N 50°39' W 000°58'816.8
2018-Apr-19 08:01N 50°46' W 001°06'2 5.0
2018-Apr-19 07:30N 50°49' W 001°06'0 0.0
2018-Apr-19 07:00N 50°49' W 001°06'0 0.0
2018-Apr-19 06:30N 50°49' W 001°06'0 0.2
2018-Apr-19 06:00N 50°49' W 001°06'3 5.2
2018-Apr-19 05:30N 50°46' W 001°05'3 6.4
2018-Apr-19 05:00N 50°44' W 001°02'713.8
2018-Apr-19 04:30N 50°37' W 000°58'611.2
2018-Apr-19 04:00N 50°32' W 000°57'611.2
2018-Apr-19 03:30N 50°26' W 000°56'611.2
2018-Apr-19 03:00N 50°21' W 000°52'612.3
2018-Apr-19 02:29N 50°15' W 000°47'612.0
2018-Apr-19 02:00N 50°10' W 000°44'612.4
2018-Apr-19 01:29N 50°05' W 000°38'611.8
2018-Apr-19 00:59N 49°60' W 000°33'611.4
2018-Apr-19 00:30N 49°55' W 000°30'611.3
2018-Apr-19 00:00N 49°49' W 000°26'611.4
2018-Apr-18 23:30N 49°44' W 000°23'611.9
2018-Apr-18 23:00N 49°38' W 000°21'611.8
2018-Apr-18 22:30N 49°33' W 000°19'611.4
2018-Apr-18 22:00N 49°27' W 000°16'510.7
2018-Apr-18 21:30N 49°22' W 000°14'5 9.5
2018-Apr-18 21:00N 49°17' W 000°15'0 0.1
2018-Apr-18 20:31N 49°17' W 000°15'0 0.0
2018-Apr-18 20:00N 49°17' W 000°15'0 0.0
2018-Apr-18 19:30N 49°17' W 000°15'0 0.0
2018-Apr-18 19:00N 49°17' W 000°15'0 0.0
2018-Apr-18 18:30N 49°17' W 000°15'0 0.0
2018-Apr-18 18:00N 49°17' W 000°15'0 0.0
2018-Apr-18 17:30N 49°17' W 000°15'0 0.0
2018-Apr-18 17:00N 49°17' W 000°15'0 0.0
2018-Apr-18 16:30N 49°17' W 000°15'0 0.0
2018-Apr-18 16:01N 49°17' W 000°15'0 0.0
2018-Apr-18 15:30N 49°17' W 000°15'0 0.0
2018-Apr-18 15:00N 49°17' W 000°15'0 0.0
2018-Apr-18 14:30N 49°17' W 000°15'0 0.0
2018-Apr-18 14:00N 49°17' W 000°15'0 0.0
2018-Apr-18 13:30N 49°17' W 000°15'0 0.0
2018-Apr-18 13:00N 49°17' W 000°15'510.5
2018-Apr-18 12:30N 49°23' W 000°14'714.3
2018-Apr-18 12:00N 49°30' W 000°17'917.9
2018-Apr-18 11:30N 49°38' W 000°22'918.1
2018-Apr-18 11:00N 49°46' W 000°27'918.2
2018-Apr-18 10:30N 49°54' W 000°33'918.1
2018-Apr-18 10:01N 50°03' W 000°38'1019.4
2018-Apr-18 09:30N 50°12' W 000°44'1019.5
2018-Apr-18 09:01N 50°21' W 000°48'1219.8
2018-Apr-18 08:23N 50°33' W 000°55'719.0
2018-Apr-18 08:01N 50°40' W 000°58'816.6
2018-Apr-18 07:30N 50°46' W 001°06'2 4.6
2018-Apr-18 07:00N 50°49' W 001°06'0 0.0
2018-Apr-18 06:30N 50°49' W 001°06'0 0.0
2018-Apr-18 06:00N 50°49' W 001°06'0 0.7
2018-Apr-18 05:30N 50°49' W 001°06'611.1
2018-Apr-18 05:00N 50°44' W 001°02'816.4
2018-Apr-18 04:30N 50°37' W 000°55'815.5
2018-Apr-18 04:00N 50°30' W 000°51'1115.2
2018-Apr-18 03:18N 50°19' W 000°47'515.2
2018-Apr-18 02:56N 50°14' W 000°44'715.7
2018-Apr-18 02:30N 50°08' W 000°40'816.0
2018-Apr-18 02:00N 50°01' W 000°35'816.1
2018-Apr-18 01:30N 49°53' W 000°29'815.8
2018-Apr-18 01:00N 49°46' W 000°23'815.7
2018-Apr-18 00:30N 49°39' W 000°21'815.9
2018-Apr-18 00:00N 49°31' W 000°19'4 7.9
2018-Apr-17 23:30N 49°27' W 000°17'1 1.1
2018-Apr-17 23:00N 49°27' W 000°17'1 1.4
2018-Apr-17 22:30N 49°26' W 000°18'0 0.9
2018-Apr-17 22:00N 49°26' W 000°19'510.1
2018-Apr-17 21:30N 49°22' W 000°15'4 8.7
2018-Apr-17 21:00N 49°17' W 000°15'0 0.0
2018-Apr-17 20:30N 49°17' W 000°15'0 0.0
2018-Apr-17 20:01N 49°17' W 000°15'0 0.0
2018-Apr-17 19:31N 49°17' W 000°15'611.1
2018-Apr-17 19:00N 49°23' W 000°14'1020.1
2018-Apr-17 18:31N 49°32' W 000°22'1019.9
2018-Apr-17 18:01N 49°41' W 000°25'1019.3
2018-Apr-17 17:30N 49°49' W 000°34'1019.3
2018-Apr-17 17:00N 49°59' W 000°38'1019.3
2018-Apr-17 16:30N 50°08' W 000°41'2417.7
2018-Apr-17 15:10N 50°30' W 000°55'317.3
2018-Apr-17 15:00N 50°33' W 000°56'917.5
2018-Apr-17 14:30N 50°41' W 001°00'815.8
2018-Apr-17 14:00N 50°48' W 001°07'1 2.3
2018-Apr-17 13:30N 50°49' W 001°06'0 0.0
2018-Apr-17 13:00N 50°49' W 001°06'0 0.0
2018-Apr-17 12:30N 50°49' W 001°06'1 3.0
2018-Apr-17 12:00N 50°47' W 001°07'816.3
2018-Apr-17 11:30N 50°40' W 001°00'1019.7
2018-Apr-17 11:01N 50°31' W 000°55'1019.2
2018-Apr-17 10:31N 50°22' W 000°50'1019.1
2018-Apr-17 10:00N 50°13' W 000°44'1019.0
2018-Apr-17 09:30N 50°04' W 000°39'918.1
2018-Apr-17 09:00N 49°56' W 000°32'918.8
2018-Apr-17 08:30N 49°47' W 000°29'918.7
2018-Apr-17 08:00N 49°38' W 000°24'918.6
2018-Apr-17 07:31N 49°30' W 000°19'918.3
2018-Apr-17 07:00N 49°21' W 000°15'4 7.0
2018-Apr-17 06:30N 49°17' W 000°15'0 0.0
2018-Apr-17 06:00N 49°17' W 000°15'0 0.0
2018-Apr-17 05:30N 49°17' W 000°15'0 0.0
2018-Apr-17 05:00N 49°17' W 000°15'0 0.3
2018-Apr-17 04:30N 49°17' W 000°15'714.3
2018-Apr-17 04:00N 49°25' W 000°16'714.9
2018-Apr-17 03:31N 49°31' W 000°21'714.9
2018-Apr-17 03:00N 49°38' W 000°25'714.5
2018-Apr-17 02:31N 49°44' W 000°31'714.3
2018-Apr-17 02:00N 49°51' W 000°35'714.7
2018-Apr-17 01:31N 49°58' W 000°39'714.9
2018-Apr-17 01:01N 50°05' W 000°43'815.4
2018-Apr-17 00:30N 50°12' W 000°45'915.6
2018-Apr-16 23:57N 50°21' W 000°48'715.9
2018-Apr-16 23:30N 50°28' W 000°52'815.6
2018-Apr-16 23:00N 50°35' W 000°56'714.7
2018-Apr-16 22:31N 50°42' W 001°00'713.7
2018-Apr-16 22:00N 50°47' W 001°07'1 2.9
2018-Apr-16 21:31N 50°49' W 001°06'0 0.0
2018-Apr-16 21:01N 50°49' W 001°06'0 0.0
2018-Apr-16 20:30N 50°49' W 001°06'1 2.1
2018-Apr-16 20:00N 50°48' W 001°07'713.8
2018-Apr-16 19:30N 50°43' W 000°59'918.3
2018-Apr-16 19:01N 50°35' W 000°53'918.4
2018-Apr-16 18:31N 50°26' W 000°47'918.5
2018-Apr-16 18:01N 50°17' W 000°43'1018.4
2018-Apr-16 17:29N 50°08' W 000°41'918.3
2018-Apr-16 17:01N 49°59' W 000°37'918.5
2018-Apr-16 16:30N 49°51' W 000°32'1019.1
2018-Apr-16 16:00N 49°42' W 000°27'918.9
2018-Apr-16 15:31N 49°33' W 000°22'918.6
2018-Apr-16 15:01N 49°24' W 000°16'714.1
2018-Apr-16 14:30N 49°17' W 000°15'0 0.1
2018-Apr-16 14:00N 49°17' W 000°15'0 0.0
2018-Apr-16 13:30N 49°17' W 000°15'0 0.0
2018-Apr-16 13:00N 49°17' W 000°15'3 6.1
2018-Apr-16 12:30N 49°20' W 000°14'917.8
2018-Apr-16 12:01N 49°29' W 000°17'918.2
2018-Apr-16 11:31N 49°38' W 000°21'918.1
2018-Apr-16 11:00N 49°46' W 000°27'918.4
2018-Apr-16 10:30N 49°55' W 000°31'1019.5
2018-Apr-16 10:00N 50°04' W 000°35'1019.7
2018-Apr-16 09:29N 50°14' W 000°42'2019.6
2018-Apr-16 08:28N 50°32' W 000°55'918.6
2018-Apr-16 08:01N 50°40' W 000°60'917.1
2018-Apr-16 07:30N 50°47' W 001°06'2 3.2
2018-Apr-16 07:00N 50°49' W 001°06'0 0.0
2018-Apr-16 06:30N 50°49' W 001°06'0 0.0
2018-Apr-16 06:00N 50°49' W 001°06'0 0.6
2018-Apr-16 05:30N 50°49' W 001°06'611.5
2018-Apr-16 05:01N 50°44' W 001°02'714.7
2018-Apr-16 04:30N 50°37' W 000°56'612.2
2018-Apr-16 04:00N 50°32' W 000°52'612.0
2018-Apr-16 03:30N 50°26' W 000°49'1711.8
2018-Apr-16 02:05N 50°10' W 000°41'112.4
2018-Apr-16 02:00N 50°09' W 000°41'612.1
2018-Apr-16 01:29N 50°03' W 000°37'612.4
2018-Apr-16 01:00N 49°58' W 000°34'612.5
2018-Apr-16 00:30N 49°52' W 000°30'612.7
2018-Apr-16 00:00N 49°46' W 000°25'612.3
2018-Apr-15 23:30N 49°40' W 000°22'611.5
2018-Apr-15 22:59N 49°35' W 000°19'611.6
2018-Apr-15 22:30N 49°29' W 000°18'611.8
2018-Apr-15 22:00N 49°24' W 000°15'611.4
2018-Apr-15 21:30N 49°18' W 000°15'0 1.0
2018-Apr-15 21:00N 49°17' W 000°15'0 0.0
2018-Apr-15 20:30N 49°17' W 000°15'0 0.0
2018-Apr-15 20:00N 49°17' W 000°15'0 0.0
2018-Apr-15 19:30N 49°17' W 000°15'4 7.3
2018-Apr-15 19:00N 49°21' W 000°14'1019.1
2018-Apr-15 18:30N 49°30' W 000°16'1019.2
2018-Apr-15 18:00N 49°40' W 000°21'1019.1
2018-Apr-15 17:30N 49°48' W 000°27'918.6
2018-Apr-15 17:00N 49°56' W 000°34'918.3
2018-Apr-15 16:30N 50°05' W 000°39'2817.9
2018-Apr-15 14:55N 50°31' W 000°55'717.9
2018-Apr-15 14:30N 50°39' W 000°58'815.3
2018-Apr-15 14:00N 50°45' W 001°05'4 7.4
2018-Apr-15 13:30N 50°49' W 001°06'0 0.0
2018-Apr-15 13:00N 50°49' W 001°06'0 0.0
2018-Apr-15 12:30N 50°49' W 001°06'0 0.2
2018-Apr-15 12:01N 50°49' W 001°06'5 9.3
2018-Apr-15 11:31N 50°44' W 001°04'1019.1
2018-Apr-15 11:00N 50°36' W 000°56'1019.8
2018-Apr-15 10:30N 50°27' W 000°49'1419.7
2018-Apr-15 09:46N 50°14' W 000°41'519.6
2018-Apr-15 09:31N 50°09' W 000°39'1019.1
2018-Apr-15 09:01N 49°59' W 000°35'918.9
2018-Apr-15 08:31N 49°51' W 000°29'1019.0
2018-Apr-15 08:01N 49°42' W 000°24'1019.3
2018-Apr-15 07:31N 49°33' W 000°20'1019.0
2018-Apr-15 07:00N 49°23' W 000°16'612.3
2018-Apr-15 06:30N 49°17' W 000°15'0 0.0
2018-Apr-15 06:00N 49°17' W 000°15'0 0.0
2018-Apr-15 05:30N 49°17' W 000°15'0 0.0
2018-Apr-15 05:00N 49°17' W 000°15'0 0.1
2018-Apr-15 04:30N 49°17' W 000°15'714.6
2018-Apr-15 04:00N 49°25' W 000°14'815.5
2018-Apr-15 03:30N 49°32' W 000°18'815.7
2018-Apr-15 03:00N 49°39' W 000°22'815.4
2018-Apr-15 02:30N 49°47' W 000°26'815.1
2018-Apr-15 02:00N 49°54' W 000°30'  
Track history (hours):
 
Tides and Currents Weather Stations Pressure Air Temp Water Temp Dewpoint Dewpoint Depression Visibility Wind Speed Wind Dir Waves Ship Positions

Normandie

Operator: Brittany Ferries

Last reported at 2018-Apr-25 01:48 UTC. Time now 2018-Apr-25 02:37 UTC.
Position N 50°07' W 000°40'.

Length 161 m; beam 27 m.

Type: Passenger vessel. MMSI: 227273000.

Date/timePositionNaut miles runAvg speedWind from/ knotsBaromVisibWave heightAir tempDewpointWater temp
2018-Apr-25 01:48N 50°07' W 000°40'310.3
2018-Apr-25 01:29N 50°04' W 000°39'610.9
2018-Apr-25 00:55N 49°58' W 000°36'511.3
2018-Apr-25 00:30N 49°54' W 000°34'611.0
2018-Apr-25 00:00N 49°48' W 000°31'611.1
2018-Apr-24 23:30N 49°43' W 000°29'611.2
2018-Apr-24 23:00N 49°38' W 000°27'611.3
2018-Apr-24 22:30N 49°33' W 000°23'611.4
2018-Apr-24 22:00N 49°27' W 000°19'611.2
2018-Apr-24 21:30N 49°22' W 000°16'510.1
2018-Apr-24 21:01N 49°17' W 000°15'0 0.1
2018-Apr-24 20:30N 49°17' W 000°15'0 0.0
2018-Apr-24 20:01N 49°17' W 000°15'0 0.0
2018-Apr-24 19:30N 49°17' W 000°15'5 9.1
2018-Apr-24 19:00N 49°22' W 000°14'918.2
2018-Apr-24 18:30N 49°30' W 000°19'918.3
2018-Apr-24 18:00N 49°39' W 000°25'918.8
2018-Apr-24 17:30N 49°47' W 000°31'918.6
2018-Apr-24 17:01N 49°56' W 000°35'1019.2
2018-Apr-24 16:30N 50°05' W 000°39'2119.1
2018-Apr-24 15:24N 50°26' W 000°50'819.1
2018-Apr-24 15:00N 50°33' W 000°55'918.5
2018-Apr-24 14:31N 50°41' W 001°00'816.0
2018-Apr-24 14:00N 50°48' W 001°07'1 2.3
2018-Apr-24 13:30N 50°49' W 001°06'0 0.0
2018-Apr-24 13:00N 50°49' W 001°06'0 0.0
2018-Apr-24 12:30N 50°49' W 001°06'1 1.6
2018-Apr-24 12:00N 50°48' W 001°07'713.9
2018-Apr-24 11:30N 50°43' W 001°00'917.3
2018-Apr-24 11:00N 50°35' W 000°56'919.0
2018-Apr-24 10:31N 50°26' W 000°51'918.8
2018-Apr-24 10:00N 50°17' W 000°46'1019.2
2018-Apr-24 09:30N 50°08' W 000°41'1019.5
2018-Apr-24 09:00N 49°59' W 000°35'1019.6
2018-Apr-24 08:30N 49°50' W 000°29'1019.6
2018-Apr-24 08:00N 49°41' W 000°24'1019.2
2018-Apr-24 07:30N 49°31' W 000°20'1019.2
2018-Apr-24 07:00N 49°22' W 000°15'510.0
2018-Apr-24 06:31N 49°17' W 000°15'0 0.0
2018-Apr-24 06:00N 49°17' W 000°15'0 0.0
2018-Apr-24 05:31N 49°17' W 000°15'0 0.0
2018-Apr-24 05:01N 49°17' W 000°15'0 0.3
2018-Apr-24 04:31N 49°17' W 000°15'816.2
2018-Apr-24 04:00N 49°25' W 000°16'917.5
2018-Apr-24 03:30N 49°34' W 000°20'816.1
2018-Apr-24 03:00N 49°41' W 000°27'816.2
2018-Apr-24 02:30N 49°48' W 000°31'816.4
2018-Apr-24 02:00N 49°56' W 000°34'816.1
2018-Apr-24 01:30N 50°04' W 000°37'816.5
2018-Apr-24 01:00N 50°12' W 000°42'1515.9
2018-Apr-24 00:05N 50°25' W 000°50'215.9
2018-Apr-23 23:57N 50°27' W 000°51'717.0
2018-Apr-23 23:30N 50°34' W 000°56'816.6
2018-Apr-23 23:00N 50°42' W 000°59'714.9
2018-Apr-23 22:31N 50°48' W 001°07'1 2.4
2018-Apr-23 22:00N 50°49' W 001°06'0 0.0
2018-Apr-23 21:30N 50°49' W 001°06'0 0.0
2018-Apr-23 21:01N 50°49' W 001°06'0 0.0
2018-Apr-23 20:31N 50°49' W 001°06'0 0.3
2018-Apr-23 20:01N 50°49' W 001°06'510.5
2018-Apr-23 19:30N 50°44' W 001°03'918.4
2018-Apr-23 19:00N 50°36' W 000°56'1019.4
2018-Apr-23 18:31N 50°28' W 000°47'1018.8
2018-Apr-23 18:00N 50°20' W 000°40'918.6
2018-Apr-23 17:30N 50°11' W 000°35'1018.8
2018-Apr-23 17:00N 50°01' W 000°35'918.5
2018-Apr-23 16:31N 49°53' W 000°30'918.4
2018-Apr-23 16:00N 49°44' W 000°25'918.6
2018-Apr-23 15:30N 49°35' W 000°21'919.0
2018-Apr-23 15:00N 49°26' W 000°17'917.1
2018-Apr-23 14:30N 49°18' W 000°15'0 0.5
2018-Apr-23 14:00N 49°17' W 000°15'0 0.0
2018-Apr-23 13:30N 49°17' W 000°15'0 0.0
2018-Apr-23 13:00N 49°17' W 000°15'5 9.3
2018-Apr-23 12:30N 49°22' W 000°14'917.5
2018-Apr-23 12:00N 49°31' W 000°17'917.7
2018-Apr-23 11:31N 49°39' W 000°22'917.9
2018-Apr-23 11:01N 49°47' W 000°28'918.0
2018-Apr-23 10:31N 49°55' W 000°32'917.2
2018-Apr-23 10:00N 50°03' W 000°38'917.1
2018-Apr-23 09:30N 50°11' W 000°43'1517.1
2018-Apr-23 08:40N 50°25' W 000°50'317.6
2018-Apr-23 08:30N 50°27' W 000°51'918.5
2018-Apr-23 08:01N 50°36' W 000°57'918.4
2018-Apr-23 07:31N 50°44' W 001°04'5 9.6
2018-Apr-23 07:00N 50°49' W 001°06'0 0.0
2018-Apr-23 06:30N 50°49' W 001°06'0 0.0
2018-Apr-23 06:00N 50°49' W 001°06'0 0.2
2018-Apr-23 05:31N 50°49' W 001°06'5 9.1
2018-Apr-23 05:00N 50°44' W 001°04'816.3
2018-Apr-23 04:30N 50°37' W 000°59'714.7
2018-Apr-23 04:00N 50°30' W 000°56'914.9
2018-Apr-23 03:25N 50°21' W 000°52'814.4
2018-Apr-23 02:51N 50°15' W 000°45'514.6
2018-Apr-23 02:30N 50°10' W 000°42'714.2
2018-Apr-23 02:00N 50°03' W 000°38'612.1
2018-Apr-23 01:30N 49°57' W 000°35'5 9.8
2018-Apr-23 01:00N 49°53' W 000°32'510.1
2018-Apr-23 00:30N 49°48' W 000°30'510.3
2018-Apr-23 00:00N 49°43' W 000°27'510.6
2018-Apr-22 23:30N 49°38' W 000°25'611.1
2018-Apr-22 23:00N 49°33' W 000°22'611.3
2018-Apr-22 22:30N 49°28' W 000°19'611.5
2018-Apr-22 22:00N 49°22' W 000°16'510.1
2018-Apr-22 21:30N 49°17' W 000°15'0 0.1
2018-Apr-22 21:00N 49°17' W 000°15'0 0.0
2018-Apr-22 20:30N 49°17' W 000°15'0 0.0
2018-Apr-22 20:00N 49°17' W 000°15'1 1.1
2018-Apr-22 19:30N 49°18' W 000°15'816.4
2018-Apr-22 19:00N 49°26' W 000°18'917.6
2018-Apr-22 18:30N 49°34' W 000°23'917.7
2018-Apr-22 18:00N 49°42' W 000°27'918.0
2018-Apr-22 17:30N 49°51' W 000°31'918.3
2018-Apr-22 17:00N 49°60' W 000°36'918.5
2018-Apr-22 16:31N 50°08' W 000°40'918.5
2018-Apr-22 16:00N 50°17' W 000°46'918.8
2018-Apr-22 15:31N 50°25' W 000°52'918.3
2018-Apr-22 15:01N 50°34' W 000°55'917.3
2018-Apr-22 14:30N 50°42' W 001°01'714.4
2018-Apr-22 14:01N 50°48' W 001°07'1 1.5
2018-Apr-22 13:30N 50°49' W 001°06'0 0.0
2018-Apr-22 13:01N 50°49' W 001°06'0 0.0
2018-Apr-22 12:31N 50°49' W 001°06'1 1.3
2018-Apr-22 12:01N 50°48' W 001°07'612.8
2018-Apr-22 11:31N 50°43' W 001°01'816.8
2018-Apr-22 11:00N 50°35' W 000°56'918.0
2018-Apr-22 10:31N 50°27' W 000°52'918.7
2018-Apr-22 10:01N 50°18' W 000°47'918.8
2018-Apr-22 09:30N 50°09' W 000°42'1019.1
2018-Apr-22 09:00N 50°00' W 000°38'1019.3
2018-Apr-22 08:31N 49°51' W 000°33'1019.5
2018-Apr-22 08:00N 49°42' W 000°28'1019.5
2018-Apr-22 07:30N 49°33' W 000°22'1019.6
2018-Apr-22 07:00N 49°24' W 000°16'612.8
2018-Apr-22 06:30N 49°17' W 000°15'0 0.0
2018-Apr-22 06:00N 49°17' W 000°15'0 0.0
2018-Apr-22 05:30N 49°17' W 000°15'0 0.0
2018-Apr-22 05:00N 49°17' W 000°15'0 0.2
2018-Apr-22 04:31N 49°17' W 000°15'714.7
2018-Apr-22 04:00N 49°25' W 000°14'815.9
2018-Apr-22 03:30N 49°32' W 000°18'815.8
2018-Apr-22 03:00N 49°39' W 000°23'815.8
2018-Apr-22 02:30N 49°47' W 000°27'816.0
2018-Apr-22 02:00N 49°54' W 000°31'816.1
2018-Apr-22 01:31N 50°02' W 000°35'816.1
2018-Apr-22 01:00N 50°10' W 000°39'816.4
2018-Apr-22 00:30N 50°17' W 000°45'713.9
2018-Apr-22 00:00N 50°24' W 000°49'611.9
2018-Apr-21 23:30N 50°29' W 000°53'611.7
2018-Apr-21 23:00N 50°34' W 000°56'713.5
2018-Apr-21 22:30N 50°41' W 000°59'714.1
2018-Apr-21 22:00N 50°46' W 001°06'2 4.6
2018-Apr-21 21:30N 50°49' W 001°06'0 0.0
2018-Apr-21 21:01N 50°49' W 001°06'0 0.0
2018-Apr-21 20:31N 50°49' W 001°06'1 2.2
2018-Apr-21 20:01N 50°48' W 001°07'714.2
2018-Apr-21 19:31N 50°43' W 000°59'917.7
2018-Apr-21 19:00N 50°34' W 000°56'918.7
2018-Apr-21 18:30N 50°25' W 000°50'917.7
2018-Apr-21 18:00N 50°17' W 000°46'918.1
2018-Apr-21 17:31N 50°08' W 000°41'918.4
2018-Apr-21 17:00N 49°60' W 000°36'919.2
2018-Apr-21 16:30N 49°51' W 000°31'1019.0
2018-Apr-21 16:00N 49°42' W 000°27'1019.2
2018-Apr-21 15:30N 49°33' W 000°22'1019.0
2018-Apr-21 15:00N 49°24' W 000°16'713.5
2018-Apr-21 14:31N 49°17' W 000°15'0 0.0
2018-Apr-21 14:01N 49°17' W 000°15'0 0.0
2018-Apr-21 13:30N 49°17' W 000°15'0 0.0
2018-Apr-21 13:01N 49°17' W 000°15'510.1
2018-Apr-21 12:30N 49°22' W 000°14'1019.1
2018-Apr-21 12:00N 49°31' W 000°21'917.8
2018-Apr-21 11:30N 49°39' W 000°26'918.7
2018-Apr-21 11:00N 49°48' W 000°31'919.0
2018-Apr-21 10:30N 49°57' W 000°35'1019.0
2018-Apr-21 10:00N 50°06' W 000°40'1020.3
2018-Apr-21 09:30N 50°16' W 000°45'1019.9
2018-Apr-21 09:00N 50°25' W 000°51'1019.6
2018-Apr-21 08:30N 50°34' W 000°56'917.3
2018-Apr-21 08:00N 50°42' W 000°59'612.9
2018-Apr-21 07:30N 50°47' W 001°06'2 3.7
2018-Apr-21 07:00N 50°49' W 001°06'0 0.0
2018-Apr-21 06:31N 50°49' W 001°06'0 0.0
2018-Apr-21 06:01N 50°49' W 001°06'0 0.2
2018-Apr-21 05:30N 50°49' W 001°06'5 9.9
2018-Apr-21 05:01N 50°44' W 001°04'816.4
2018-Apr-21 04:31N 50°36' W 000°58'815.3
2018-Apr-21 04:00N 50°29' W 000°54'815.5
2018-Apr-21 03:30N 50°22' W 000°50'815.9
2018-Apr-21 03:00N 50°15' W 000°45'713.0
2018-Apr-21 02:30N 50°09' W 000°41'611.7
2018-Apr-21 02:00N 50°03' W 000°37'611.4
2018-Apr-21 01:30N 49°58' W 000°34'611.3
2018-Apr-21 01:00N 49°52' W 000°33'611.0
2018-Apr-21 00:30N 49°47' W 000°30'611.0
2018-Apr-21 00:00N 49°42' W 000°27'510.9
2018-Apr-20 23:30N 49°37' W 000°24'611.1
2018-Apr-20 23:00N 49°32' W 000°21'510.9
2018-Apr-20 22:30N 49°27' W 000°18'510.5
2018-Apr-20 22:00N 49°22' W 000°15'5 9.0
2018-Apr-20 21:30N 49°17' W 000°15'0 0.1
2018-Apr-20 21:00N 49°17' W 000°15'0 0.0
2018-Apr-20 20:30N 49°17' W 000°15'0 0.0
2018-Apr-20 20:00N 49°17' W 000°15'0 0.1
2018-Apr-20 19:30N 49°17' W 000°15'5 9.6
2018-Apr-20 19:00N 49°22' W 000°14'918.6
2018-Apr-20 18:30N 49°31' W 000°19'919.0
2018-Apr-20 18:01N 49°39' W 000°25'918.9
2018-Apr-20 17:31N 49°48' W 000°31'918.8
2018-Apr-20 17:00N 49°57' W 000°36'918.6
2018-Apr-20 16:31N 50°05' W 000°42'918.7
2018-Apr-20 16:00N 50°14' W 000°46'919.0
2018-Apr-20 15:31N 50°23' W 000°51'1019.1
2018-Apr-20 15:00N 50°32' W 000°55'918.5
2018-Apr-20 14:30N 50°41' W 001°01'815.4
2018-Apr-20 14:00N 50°48' W 001°07'1 2.2
2018-Apr-20 13:30N 50°49' W 001°06'0 0.0
2018-Apr-20 13:00N 50°49' W 001°06'0 0.0
2018-Apr-20 12:30N 50°49' W 001°06'1 1.1
2018-Apr-20 12:01N 50°49' W 001°07'714.2
2018-Apr-20 11:30N 50°42' W 001°02'1019.1
2018-Apr-20 11:00N 50°33' W 000°56'919.0
2018-Apr-20 10:30N 50°25' W 000°50'1019.4
2018-Apr-20 10:01N 50°16' W 000°45'1019.1
2018-Apr-20 09:30N 50°07' W 000°40'1019.1
2018-Apr-20 09:00N 49°57' W 000°35'1019.2
2018-Apr-20 08:30N 49°49' W 000°30'1019.5
2018-Apr-20 08:00N 49°39' W 000°26'1019.9
2018-Apr-20 07:30N 49°30' W 000°21'1019.8
2018-Apr-20 07:00N 49°21' W 000°15'3 6.8
2018-Apr-20 06:31N 49°17' W 000°15'0 0.0
2018-Apr-20 06:01N 49°17' W 000°15'0 0.0
2018-Apr-20 05:30N 49°17' W 000°15'0 0.0
2018-Apr-20 05:01N 49°17' W 000°15'0 0.3
2018-Apr-20 04:30N 49°17' W 000°15'815.0
2018-Apr-20 04:00N 49°25' W 000°15'816.8
2018-Apr-20 03:31N 49°32' W 000°20'816.7
2018-Apr-20 03:01N 49°40' W 000°26'816.2
2018-Apr-20 02:31N 49°47' W 000°31'816.2
2018-Apr-20 02:00N 49°55' W 000°36'816.8
2018-Apr-20 01:31N 50°03' W 000°40'917.1
2018-Apr-20 01:00N 50°11' W 000°44'816.9
2018-Apr-20 00:31N 50°19' W 000°46'816.6
2018-Apr-20 00:01N 50°27' W 000°50'917.1
2018-Apr-19 23:31N 50°35' W 000°56'816.3
2018-Apr-19 23:01N 50°42' W 001°01'713.6
2018-Apr-19 22:30N 50°48' W 001°07'1 2.0
2018-Apr-19 22:00N 50°49' W 001°06'0 0.0
2018-Apr-19 21:30N 50°49' W 001°06'0 0.0
2018-Apr-19 21:00N 50°49' W 001°06'0 0.0
2018-Apr-19 20:30N 50°49' W 001°06'1 2.4
2018-Apr-19 20:00N 50°48' W 001°07'714.5
2018-Apr-19 19:30N 50°43' W 000°59'918.5
2018-Apr-19 19:00N 50°33' W 000°56'1019.5
2018-Apr-19 18:30N 50°24' W 000°50'1019.5
2018-Apr-19 18:00N 50°15' W 000°45'1019.9
2018-Apr-19 17:30N 50°06' W 000°41'1020.2
2018-Apr-19 17:00N 49°56' W 000°36'1020.6
2018-Apr-19 16:30N 49°46' W 000°31'1020.7
2018-Apr-19 16:00N 49°37' W 000°25'1020.5
2018-Apr-19 15:30N 49°27' W 000°19'918.5
2018-Apr-19 15:01N 49°18' W 000°15'1 2.0
2018-Apr-19 14:30N 49°17' W 000°15'0 0.0
2018-Apr-19 14:00N 49°17' W 000°15'0 0.0
2018-Apr-19 13:30N 49°17' W 000°15'0 0.2
2018-Apr-19 13:00N 49°17' W 000°15'815.7
2018-Apr-19 12:31N 49°25' W 000°15'1020.0
2018-Apr-19 12:01N 49°35' W 000°19'1020.1
2018-Apr-19 11:31N 49°44' W 000°27'1019.9
2018-Apr-19 11:00N 49°53' W 000°31'1020.4
2018-Apr-19 10:30N 50°03' W 000°36'1020.5
2018-Apr-19 10:00N 50°12' W 000°43'1120.3
2018-Apr-19 09:29N 50°22' W 000°49'919.3
2018-Apr-19 09:00N 50°30' W 000°54'918.2
2018-Apr-19 08:30N 50°39' W 000°58'816.8
2018-Apr-19 08:01N 50°46' W 001°06'2 5.0
2018-Apr-19 07:30N 50°49' W 001°06'0 0.0
2018-Apr-19 07:00N 50°49' W 001°06'0 0.0
2018-Apr-19 06:30N 50°49' W 001°06'0 0.2
2018-Apr-19 06:00N 50°49' W 001°06'3 5.2
2018-Apr-19 05:30N 50°46' W 001°05'3 6.4
2018-Apr-19 05:00N 50°44' W 001°02'713.8
2018-Apr-19 04:30N 50°37' W 000°58'611.2
2018-Apr-19 04:00N 50°32' W 000°57'611.2
2018-Apr-19 03:30N 50°26' W 000°56'611.2
2018-Apr-19 03:00N 50°21' W 000°52'612.3
2018-Apr-19 02:29N 50°15' W 000°47'612.0
2018-Apr-19 02:00N 50°10' W 000°44'612.4
2018-Apr-19 01:29N 50°05' W 000°38'611.8
2018-Apr-19 00:59N 49°60' W 000°33'611.4
2018-Apr-19 00:30N 49°55' W 000°30'611.3
2018-Apr-19 00:00N 49°49' W 000°26'611.4
2018-Apr-18 23:30N 49°44' W 000°23'611.9
2018-Apr-18 23:00N 49°38' W 000°21'611.8
2018-Apr-18 22:30N 49°33' W 000°19'611.4
2018-Apr-18 22:00N 49°27' W 000°16'510.7
2018-Apr-18 21:30N 49°22' W 000°14'5 9.5
2018-Apr-18 21:00N 49°17' W 000°15'0 0.1
2018-Apr-18 20:31N 49°17' W 000°15'0 0.0
2018-Apr-18 20:00N 49°17' W 000°15'0 0.0
2018-Apr-18 19:30N 49°17' W 000°15'0 0.0
2018-Apr-18 19:00N 49°17' W 000°15'0 0.0
2018-Apr-18 18:30N 49°17' W 000°15'0 0.0
2018-Apr-18 18:00N 49°17' W 000°15'0 0.0
2018-Apr-18 17:30N 49°17' W 000°15'0 0.0
2018-Apr-18 17:00N 49°17' W 000°15'0 0.0
2018-Apr-18 16:30N 49°17' W 000°15'0 0.0
2018-Apr-18 16:01N 49°17' W 000°15'0 0.0
2018-Apr-18 15:30N 49°17' W 000°15'0 0.0
2018-Apr-18 15:00N 49°17' W 000°15'0 0.0
2018-Apr-18 14:30N 49°17' W 000°15'0 0.0
2018-Apr-18 14:00N 49°17' W 000°15'0 0.0
2018-Apr-18 13:30N 49°17' W 000°15'0 0.0
2018-Apr-18 13:00N 49°17' W 000°15'510.5
2018-Apr-18 12:30N 49°23' W 000°14'714.3
2018-Apr-18 12:00N 49°30' W 000°17'917.9
2018-Apr-18 11:30N 49°38' W 000°22'918.1
2018-Apr-18 11:00N 49°46' W 000°27'918.2
2018-Apr-18 10:30N 49°54' W 000°33'918.1
2018-Apr-18 10:01N 50°03' W 000°38'1019.4
2018-Apr-18 09:30N 50°12' W 000°44'1019.5
2018-Apr-18 09:01N 50°21' W 000°48'1219.8
2018-Apr-18 08:23N 50°33' W 000°55'719.0
2018-Apr-18 08:01N 50°40' W 000°58'816.6
2018-Apr-18 07:30N 50°46' W 001°06'2 4.6
2018-Apr-18 07:00N 50°49' W 001°06'0 0.0
2018-Apr-18 06:30N 50°49' W 001°06'0 0.0
2018-Apr-18 06:00N 50°49' W 001°06'0 0.7
2018-Apr-18 05:30N 50°49' W 001°06'611.1
2018-Apr-18 05:00N 50°44' W 001°02'816.4
2018-Apr-18 04:30N 50°37' W 000°55'815.5
2018-Apr-18 04:00N 50°30' W 000°51'1115.2
2018-Apr-18 03:18N 50°19' W 000°47'515.2
2018-Apr-18 02:56N 50°14' W 000°44'715.7
2018-Apr-18 02:30N 50°08' W 000°40'816.0
2018-Apr-18 02:00N 50°01' W 000°35'816.1
2018-Apr-18 01:30N 49°53' W 000°29'815.8
2018-Apr-18 01:00N 49°46' W 000°23'815.7
2018-Apr-18 00:30N 49°39' W 000°21'815.9
2018-Apr-18 00:00N 49°31' W 000°19'4 7.9
2018-Apr-17 23:30N 49°27' W 000°17'1 1.1
2018-Apr-17 23:00N 49°27' W 000°17'1 1.4
2018-Apr-17 22:30N 49°26' W 000°18'0 0.9
2018-Apr-17 22:00N 49°26' W 000°19'510.1
2018-Apr-17 21:30N 49°22' W 000°15'4 8.7
2018-Apr-17 21:00N 49°17' W 000°15'0 0.0
2018-Apr-17 20:30N 49°17' W 000°15'0 0.0
2018-Apr-17 20:01N 49°17' W 000°15'0 0.0
2018-Apr-17 19:31N 49°17' W 000°15'611.1
2018-Apr-17 19:00N 49°23' W 000°14'1020.1
2018-Apr-17 18:31N 49°32' W 000°22'1019.9
2018-Apr-17 18:01N 49°41' W 000°25'1019.3
2018-Apr-17 17:30N 49°49' W 000°34'1019.3
2018-Apr-17 17:00N 49°59' W 000°38'1019.3
2018-Apr-17 16:30N 50°08' W 000°41'2417.7
2018-Apr-17 15:10N 50°30' W 000°55'317.3
2018-Apr-17 15:00N 50°33' W 000°56'917.5
2018-Apr-17 14:30N 50°41' W 001°00'815.8
2018-Apr-17 14:00N 50°48' W 001°07'1 2.3
2018-Apr-17 13:30N 50°49' W 001°06'0 0.0
2018-Apr-17 13:00N 50°49' W 001°06'0 0.0
2018-Apr-17 12:30N 50°49' W 001°06'1 3.0
2018-Apr-17 12:00N 50°47' W 001°07'816.3
2018-Apr-17 11:30N 50°40' W 001°00'1019.7
2018-Apr-17 11:01N 50°31' W 000°55'1019.2
2018-Apr-17 10:31N 50°22' W 000°50'1019.1
2018-Apr-17 10:00N 50°13' W 000°44'1019.0
2018-Apr-17 09:30N 50°04' W 000°39'918.1
2018-Apr-17 09:00N 49°56' W 000°32'918.8
2018-Apr-17 08:30N 49°47' W 000°29'918.7
2018-Apr-17 08:00N 49°38' W 000°24'918.6
2018-Apr-17 07:31N 49°30' W 000°19'918.3
2018-Apr-17 07:00N 49°21' W 000°15'4 7.0
2018-Apr-17 06:30N 49°17' W 000°15'0 0.0
2018-Apr-17 06:00N 49°17' W 000°15'0 0.0
2018-Apr-17 05:30N 49°17' W 000°15'0 0.0
2018-Apr-17 05:00N 49°17' W 000°15'0 0.3
2018-Apr-17 04:30N 49°17' W 000°15'714.3
2018-Apr-17 04:00N 49°25' W 000°16'714.9
2018-Apr-17 03:31N 49°31' W 000°21'714.9
2018-Apr-17 03:00N 49°38' W 000°25'714.5
2018-Apr-17 02:31N 49°44' W 000°31'714.3
2018-Apr-17 02:00N 49°51' W 000°35'714.7
2018-Apr-17 01:31N 49°58' W 000°39'714.9
2018-Apr-17 01:01N 50°05' W 000°43'815.4
2018-Apr-17 00:30N 50°12' W 000°45'915.6
2018-Apr-16 23:57N 50°21' W 000°48'715.9
2018-Apr-16 23:30N 50°28' W 000°52'815.6
2018-Apr-16 23:00N 50°35' W 000°56'714.7
2018-Apr-16 22:31N 50°42' W 001°00'713.7
2018-Apr-16 22:00N 50°47' W 001°07'1 2.9
2018-Apr-16 21:31N 50°49' W 001°06'0 0.0
2018-Apr-16 21:01N 50°49' W 001°06'0 0.0
2018-Apr-16 20:30N 50°49' W 001°06'1 2.1
2018-Apr-16 20:00N 50°48' W 001°07'713.8
2018-Apr-16 19:30N 50°43' W 000°59'918.3
2018-Apr-16 19:01N 50°35' W 000°53'918.4
2018-Apr-16 18:31N 50°26' W 000°47'918.5
2018-Apr-16 18:01N 50°17' W 000°43'1018.4
2018-Apr-16 17:29N 50°08' W 000°41'918.3
2018-Apr-16 17:01N 49°59' W 000°37'918.5
2018-Apr-16 16:30N 49°51' W 000°32'1019.1
2018-Apr-16 16:00N 49°42' W 000°27'918.9
2018-Apr-16 15:31N 49°33' W 000°22'918.6
2018-Apr-16 15:01N 49°24' W 000°16'714.1
2018-Apr-16 14:30N 49°17' W 000°15'0 0.1
2018-Apr-16 14:00N 49°17' W 000°15'0 0.0
2018-Apr-16 13:30N 49°17' W 000°15'0 0.0
2018-Apr-16 13:00N 49°17' W 000°15'3 6.1
2018-Apr-16 12:30N 49°20' W 000°14'917.8
2018-Apr-16 12:01N 49°29' W 000°17'918.2
2018-Apr-16 11:31N 49°38' W 000°21'918.1
2018-Apr-16 11:00N 49°46' W 000°27'918.4
2018-Apr-16 10:30N 49°55' W 000°31'1019.5
2018-Apr-16 10:00N 50°04' W 000°35'1019.7
2018-Apr-16 09:29N 50°14' W 000°42'2019.6
2018-Apr-16 08:28N 50°32' W 000°55'918.6
2018-Apr-16 08:01N 50°40' W 000°60'917.1
2018-Apr-16 07:30N 50°47' W 001°06'2 3.2
2018-Apr-16 07:00N 50°49' W 001°06'0 0.0
2018-Apr-16 06:30N 50°49' W 001°06'0 0.0
2018-Apr-16 06:00N 50°49' W 001°06'0 0.6
2018-Apr-16 05:30N 50°49' W 001°06'611.5
2018-Apr-16 05:01N 50°44' W 001°02'714.7
2018-Apr-16 04:30N 50°37' W 000°56'612.2
2018-Apr-16 04:00N 50°32' W 000°52'612.0
2018-Apr-16 03:30N 50°26' W 000°49'1711.8
2018-Apr-16 02:05N 50°10' W 000°41'112.4
2018-Apr-16 02:00N 50°09' W 000°41'612.1
2018-Apr-16 01:29N 50°03' W 000°37'612.4
2018-Apr-16 01:00N 49°58' W 000°34'612.5
2018-Apr-16 00:30N 49°52' W 000°30'612.7
2018-Apr-16 00:00N 49°46' W 000°25'612.3
2018-Apr-15 23:30N 49°40' W 000°22'611.5
2018-Apr-15 22:59N 49°35' W 000°19'611.6
2018-Apr-15 22:30N 49°29' W 000°18'611.8
2018-Apr-15 22:00N 49°24' W 000°15'611.4
2018-Apr-15 21:30N 49°18' W 000°15'0 1.0
2018-Apr-15 21:00N 49°17' W 000°15'0 0.0
2018-Apr-15 20:30N 49°17' W 000°15'0 0.0
2018-Apr-15 20:00N 49°17' W 000°15'0 0.0
2018-Apr-15 19:30N 49°17' W 000°15'4 7.3
2018-Apr-15 19:00N 49°21' W 000°14'1019.1
2018-Apr-15 18:30N 49°30' W 000°16'1019.2
2018-Apr-15 18:00N 49°40' W 000°21'1019.1
2018-Apr-15 17:30N 49°48' W 000°27'918.6
2018-Apr-15 17:00N 49°56' W 000°34'918.3
2018-Apr-15 16:30N 50°05' W 000°39'2817.9
2018-Apr-15 14:55N 50°31' W 000°55'717.9
2018-Apr-15 14:30N 50°39' W 000°58'815.3
2018-Apr-15 14:00N 50°45' W 001°05'4 7.4
2018-Apr-15 13:30N 50°49' W 001°06'0 0.0
2018-Apr-15 13:00N 50°49' W 001°06'0 0.0
2018-Apr-15 12:30N 50°49' W 001°06'0 0.2
2018-Apr-15 12:01N 50°49' W 001°06'5 9.3
2018-Apr-15 11:31N 50°44' W 001°04'1019.1
2018-Apr-15 11:00N 50°36' W 000°56'1019.8
2018-Apr-15 10:30N 50°27' W 000°49'1419.7
2018-Apr-15 09:46N 50°14' W 000°41'519.6
2018-Apr-15 09:31N 50°09' W 000°39'1019.1
2018-Apr-15 09:01N 49°59' W 000°35'918.9
2018-Apr-15 08:31N 49°51' W 000°29'1019.0
2018-Apr-15 08:01N 49°42' W 000°24'1019.3
2018-Apr-15 07:31N 49°33' W 000°20'1019.0
2018-Apr-15 07:00N 49°23' W 000°16'612.3
2018-Apr-15 06:30N 49°17' W 000°15'0 0.0
2018-Apr-15 06:00N 49°17' W 000°15'0 0.0
2018-Apr-15 05:30N 49°17' W 000°15'0 0.0
2018-Apr-15 05:00N 49°17' W 000°15'0 0.1
2018-Apr-15 04:30N 49°17' W 000°15'714.6
2018-Apr-15 04:00N 49°25' W 000°14'815.5
2018-Apr-15 03:30N 49°32' W 000°18'815.7
2018-Apr-15 03:00N 49°39' W 000°22'815.4
2018-Apr-15 02:30N 49°47' W 000°26'815.1
2018-Apr-15 02:00N 49°54' W 000°30'  

Dump ship's entire track history